createdAt,value
2022-11-16T00:01:56.675Z,9.86
2022-11-16T00:04:45.025Z,9.83
2022-11-16T00:10:22.909Z,9.93
2022-11-16T00:13:10.755Z,9.84
2022-11-16T00:15:59.560Z,9.83
2022-11-16T00:18:48.013Z,9.84
2022-11-16T00:21:36.859Z,9.86
2022-11-16T00:27:12.452Z,9.87
2022-11-16T00:32:47.144Z,9.88
2022-11-16T00:35:42.333Z,9.81
2022-11-16T00:41:20.266Z,9.84
2022-11-16T00:44:09.377Z,9.80
2022-11-16T00:46:58.768Z,9.74
2022-11-16T00:49:49.154Z,9.78
2022-11-16T00:55:23.834Z,9.71
2022-11-16T01:00:54.461Z,9.74
2022-11-16T01:03:43.382Z,9.80
2022-11-16T01:09:18.110Z,9.86
2022-11-16T01:14:53.538Z,9.99
2022-11-16T01:20:32.145Z,10.03
2022-11-16T01:26:08.093Z,9.96
2022-11-16T01:34:29.893Z,10.08
2022-11-16T01:39:58.348Z,10.02
2022-11-16T01:45:40.378Z,9.88
2022-11-16T01:51:15.721Z,9.87
2022-11-16T01:56:47.847Z,9.99
2022-11-16T02:05:26.201Z,9.58
2022-11-16T02:20:04.859Z,9.87
2022-11-16T02:25:51.310Z,9.85
2022-11-16T02:34:01.210Z,9.80
2022-11-16T02:39:38.103Z,9.77
2022-11-16T02:45:14.774Z,9.83
2022-11-16T02:50:49.052Z,9.71
2022-11-16T02:53:42.830Z,9.78
2022-11-16T02:59:22.044Z,9.74
2022-11-16T03:07:53.401Z,9.98
2022-11-16T03:13:32.290Z,10.06
2022-11-16T03:19:09.236Z,10.09
2022-11-16T03:24:42.848Z,10.06
2022-11-16T03:30:23.966Z,10.12
2022-11-16T03:36:03.394Z,9.84
2022-11-16T03:38:53.597Z,9.79
2022-11-16T03:41:42.993Z,9.81
2022-11-16T03:44:31.415Z,9.94
2022-11-16T03:47:19.948Z,9.92
2022-11-16T03:50:10.614Z,9.86
2022-11-16T03:52:58.968Z,9.81
2022-11-16T03:55:49.929Z,9.78
2022-11-16T04:01:24.191Z,9.82
2022-11-16T04:09:53.494Z,9.72
2022-11-16T04:15:49.107Z,9.80
2022-11-16T04:18:55.241Z,9.68
2022-11-16T04:27:35.654Z,9.84
2022-11-16T04:30:24.968Z,9.83
2022-11-16T04:36:20.574Z,9.83
2022-11-16T04:42:16.248Z,9.64
2022-11-16T04:47:44.043Z,9.65
2022-11-16T04:50:34.014Z,9.61
2022-11-16T04:53:24.200Z,9.76
2022-11-16T04:59:00.830Z,9.89
2022-11-16T05:04:27.632Z,9.93
2022-11-16T05:10:04.675Z,10.02
2022-11-16T05:12:54.742Z,10.02
2022-11-16T05:18:30.882Z,9.95
2022-11-16T05:21:19.464Z,10.01
2022-11-16T05:24:26.347Z,10.04
2022-11-16T05:27:17.312Z,10.09
2022-11-16T05:32:55.070Z,10.15
2022-11-16T05:41:45.494Z,10.11
2022-11-16T05:47:22.289Z,10.19
2022-11-16T05:55:41.723Z,10.14
2022-11-16T06:01:17.552Z,10.16
2022-11-16T06:06:51.599Z,10.08
2022-11-16T06:09:39.713Z,9.96
2022-11-16T06:15:14.253Z,10.03
2022-11-16T06:18:03.337Z,10.01
2022-11-16T06:23:39.419Z,10.03
2022-11-16T06:26:27.827Z,9.84
2022-11-16T06:35:05.149Z,9.80
2022-11-16T06:40:54.444Z,9.81
2022-11-16T06:43:43.869Z,9.64
2022-11-16T06:49:11.310Z,9.73
2022-11-16T06:54:40.241Z,9.83
2022-11-16T06:57:30.381Z,9.84
2022-11-16T07:03:05.015Z,10.02
2022-11-16T07:11:22.396Z,9.99
2022-11-16T07:16:57.957Z,10.20
2022-11-16T07:22:34.071Z,10.12
2022-11-16T07:28:06.691Z,10.00
2022-11-16T07:33:41.065Z,10.15
2022-11-16T07:36:29.775Z,10.11
2022-11-16T07:42:07.857Z,10.34
2022-11-16T07:47:41.303Z,10.29
2022-11-16T07:53:35.907Z,10.19
2022-11-16T07:56:24.827Z,10.04
2022-11-16T08:01:58.955Z,10.14
2022-11-16T08:07:35.153Z,10.24
2022-11-16T08:10:24.800Z,10.17
2022-11-16T08:13:13.314Z,10.14
2022-11-16T08:16:02.649Z,10.27
2022-11-16T08:18:50.778Z,10.37
2022-11-16T08:26:58.884Z,10.83
2022-11-16T08:32:35.419Z,10.83
2022-11-16T08:35:24.156Z,10.82
2022-11-16T08:40:55.181Z,10.70
2022-11-16T08:43:44.479Z,10.70
2022-11-16T08:49:10.664Z,10.94
2022-11-16T08:54:40.666Z,11.34
2022-11-16T09:00:21.588Z,11.85
2022-11-16T09:05:51.528Z,12.28
2022-11-16T09:11:27.755Z,12.92
2022-11-16T09:14:17.152Z,13.01
2022-11-16T09:17:05.656Z,13.03
2022-11-16T09:19:53.837Z,13.14
2022-11-16T09:22:54.869Z,13.16
2022-11-16T09:25:45.137Z,13.16
2022-11-16T09:31:24.745Z,13.32
2022-11-16T09:34:15.764Z,13.25
2022-11-16T09:37:04.279Z,12.80
2022-11-16T09:39:52.742Z,12.99
2022-11-16T09:42:48.480Z,13.24
2022-11-16T09:48:26.917Z,13.48
2022-11-16T09:51:16.675Z,13.26
2022-11-16T10:02:27.469Z,13.10
2022-11-16T10:08:01.177Z,13.38
2022-11-16T10:13:45.550Z,13.63
2022-11-16T10:19:26.719Z,13.90
2022-11-16T10:25:14.981Z,13.98
2022-11-16T10:28:13.987Z,14.22
2022-11-16T10:33:51.725Z,14.26
2022-11-16T10:39:21.547Z,14.13
2022-11-16T10:45:00.940Z,14.09
2022-11-16T10:50:54.902Z,13.82
2022-11-16T10:59:19.141Z,13.78
2022-11-16T11:05:12.944Z,13.49
2022-11-16T11:10:48.892Z,13.77
2022-11-16T11:16:25.046Z,14.21
2022-11-16T11:22:11.926Z,14.44
2022-11-16T11:27:50.628Z,14.60
2022-11-16T11:30:38.906Z,14.51
2022-11-16T11:33:28.311Z,14.35
2022-11-16T11:44:51.039Z,13.43
2022-11-16T11:48:00.838Z,13.35
2022-11-16T11:56:31.714Z,14.13
2022-11-16T11:59:23.030Z,14.18
2022-11-16T12:05:44.587Z,14.59
2022-11-16T12:08:52.678Z,14.35
2022-11-16T12:11:48.491Z,14.28
2022-11-16T12:14:51.444Z,14.35
2022-11-16T12:17:44.272Z,14.54
2022-11-16T12:20:37.323Z,14.83
2022-11-16T12:35:26.734Z,15.69
2022-11-16T12:42:03.253Z,15.80
2022-11-16T12:45:05.810Z,15.48
2022-11-16T12:50:56.939Z,15.57
2022-11-16T12:53:53.536Z,15.70
2022-11-16T13:02:49.031Z,15.45
2022-11-16T13:08:43.275Z,15.39
2022-11-16T13:14:24.433Z,15.10
2022-11-16T13:17:17.355Z,14.99
2022-11-16T13:22:56.176Z,14.88
2022-11-16T13:25:48.114Z,14.63
2022-11-16T13:31:29.485Z,15.06
2022-11-16T13:37:42.357Z,14.98
2022-11-16T13:40:32.383Z,14.61
2022-11-16T13:46:02.644Z,14.36
2022-11-16T13:48:50.992Z,14.34
2022-11-16T13:54:45.194Z,14.43
2022-11-16T13:57:32.794Z,14.43
2022-11-16T14:00:31.501Z,14.64
2022-11-16T14:06:50.234Z,14.51
2022-11-16T14:15:52.792Z,14.80
2022-11-16T14:21:32.717Z,14.80
2022-11-16T14:27:10.497Z,14.75
2022-11-16T14:32:48.129Z,14.56
2022-11-16T14:41:07.825Z,14.57
2022-11-16T14:46:45.237Z,14.40
2022-11-16T14:52:32.630Z,14.34
2022-11-16T14:58:20.361Z,14.08
2022-11-16T15:01:14.266Z,14.02
2022-11-16T15:06:53.040Z,13.56
2022-11-16T15:09:47.685Z,13.43
2022-11-16T15:12:46.374Z,13.24
2022-11-16T15:15:37.658Z,13.16
2022-11-16T15:18:25.977Z,12.99
2022-11-16T15:21:24.109Z,12.85
2022-11-16T15:24:29.769Z,12.83
2022-11-16T15:30:02.052Z,12.55
2022-11-16T15:32:52.567Z,12.50
2022-11-16T15:38:25.080Z,12.37
2022-11-16T15:41:13.483Z,12.26
2022-11-16T15:44:19.217Z,12.13
2022-11-16T15:49:40.255Z,12.06
2022-11-16T15:55:31.629Z,11.92
2022-11-16T15:58:24.517Z,11.93
2022-11-16T16:04:04.443Z,11.69
2022-11-16T16:09:42.662Z,11.66
2022-11-16T16:18:20.291Z,11.48
2022-11-16T16:23:56.523Z,11.40
2022-11-16T16:29:31.997Z,11.32
2022-11-16T16:35:08.872Z,11.30
2022-11-16T16:38:00.990Z,11.20
2022-11-16T16:43:36.303Z,11.19
2022-11-16T16:49:24.540Z,11.13
2022-11-16T16:54:56.843Z,11.08
2022-11-16T17:00:34.730Z,11.07
2022-11-16T17:03:22.797Z,10.96
2022-11-16T17:06:11.034Z,10.99
2022-11-16T17:09:01.848Z,10.93
2022-11-16T17:17:15.291Z,11.01
2022-11-16T17:22:53.735Z,10.98
2022-11-16T17:25:46.741Z,10.91
2022-11-16T17:28:37.156Z,10.88
2022-11-16T17:34:15.344Z,10.87
2022-11-16T17:39:50.253Z,10.72
2022-11-16T17:48:01.847Z,10.51
2022-11-16T17:50:50.253Z,10.48
2022-11-16T17:56:23.155Z,10.46
2022-11-16T18:01:58.509Z,10.40
2022-11-16T18:04:51.055Z,10.36
2022-11-16T18:07:38.624Z,10.24
2022-11-16T18:10:27.459Z,10.19
2022-11-16T18:13:17.322Z,10.14
2022-11-16T18:18:48.528Z,10.21
2022-11-16T18:21:41.631Z,10.14
2022-11-16T18:27:18.231Z,10.23
2022-11-16T18:30:08.551Z,10.25
2022-11-16T18:35:47.308Z,10.06
2022-11-16T18:41:19.712Z,9.81
2022-11-16T18:44:09.033Z,9.77
2022-11-16T18:49:45.109Z,9.84
2022-11-16T18:52:32.969Z,9.77
2022-11-16T18:55:23.130Z,9.76
2022-11-16T19:00:55.737Z,9.74
2022-11-16T19:06:33.197Z,9.69
2022-11-16T19:14:55.146Z,9.59
2022-11-16T19:20:21.693Z,9.51
2022-11-16T19:28:46.004Z,9.48
2022-11-16T19:34:16.189Z,9.47
2022-11-16T19:39:53.871Z,9.43
2022-11-16T19:45:32.705Z,9.39
2022-11-16T19:51:10.902Z,9.30
2022-11-16T19:54:00.443Z,9.18
2022-11-16T19:59:33.941Z,9.24
2022-11-16T20:05:01.383Z,9.23
2022-11-16T20:10:38.189Z,9.23
2022-11-16T20:13:29.347Z,9.16
2022-11-16T20:19:25.356Z,9.19
2022-11-16T20:25:02.359Z,9.22
2022-11-16T20:30:30.227Z,9.11
2022-11-16T20:36:05.851Z,9.16
2022-11-16T20:41:43.975Z,9.22
2022-11-16T20:47:14.434Z,9.25
2022-11-16T20:52:52.993Z,9.33
2022-11-16T20:55:42.503Z,9.26
2022-11-16T21:01:35.552Z,9.33
2022-11-16T21:10:19.423Z,9.40
2022-11-16T21:16:12.304Z,9.62
2022-11-16T21:19:00.784Z,9.44
2022-11-16T21:21:49.960Z,9.47
2022-11-16T21:24:40.723Z,9.52
2022-11-16T21:27:29.044Z,9.53
2022-11-16T21:30:18.224Z,9.59
2022-11-16T21:33:06.852Z,9.69
2022-11-16T21:35:55.539Z,9.62
2022-11-16T21:38:43.867Z,9.64
2022-11-16T21:41:32.400Z,9.65
2022-11-16T21:52:51.504Z,9.77
2022-11-16T21:59:00.872Z,9.81
2022-11-16T22:02:05.135Z,9.75
2022-11-16T22:05:14.141Z,9.76
2022-11-16T22:10:56.318Z,9.83
2022-11-16T22:13:45.713Z,9.71
2022-11-16T22:22:38.158Z,9.66
2022-11-16T22:25:26.566Z,9.66
2022-11-16T22:31:18.066Z,9.74
2022-11-16T22:34:08.450Z,9.70
2022-11-16T22:36:56.991Z,9.64
2022-11-16T22:39:46.155Z,9.72
2022-11-16T22:42:34.709Z,9.71
2022-11-16T22:45:23.851Z,9.72
2022-11-16T22:51:04.972Z,9.73
2022-11-16T22:53:55.869Z,9.69
2022-11-16T22:56:44.151Z,9.63
2022-11-16T23:02:23.808Z,9.54
2022-11-16T23:05:12.942Z,9.46
2022-11-16T23:11:09.877Z,9.58
2022-11-16T23:14:16.356Z,9.52
2022-11-16T23:17:05.773Z,9.61
2022-11-16T23:20:17.309Z,9.22
2022-11-16T23:26:07.122Z,9.31
2022-11-16T23:31:36.548Z,9.31
2022-11-16T23:37:09.663Z,9.38
2022-11-16T23:43:00.672Z,9.50
2022-11-16T23:45:49.312Z,9.47
2022-11-16T23:48:37.463Z,9.26
2022-11-16T23:54:06.604Z,9.18
2022-11-16T23:56:55.356Z,9.22
